Time;durP1;ratioP1;P1;durP2;ratioP2;P2;SDS_P1;SDS_P2;PMS_P1;PMS_P2;Temp;Humidity;BMP_temperature;BMP_pressure;BME280_temperature;BME280_humidity;BME280_pressure;Samples;Min_cycle;Max_cycle;Signal;HPM_P1;HPM_P2
2023/12/21 00:01:04;;;;;;;0.20;0.20;;;;;;;;;;6257839;28;20029;-92
2023/12/21 00:04:05;;;;;;;0.10;0.10;;;;;;;;;;6241321;28;20032;-86
2023/12/21 00:07:05;;;;;;;0.10;0.10;;;;;;;;;;6234981;28;20029;-86
2023/12/21 00:10:05;;;;;;;0.20;0.20;;;;;;;;;;6241814;28;20058;-87
2023/12/21 00:13:06;;;;;;;0.20;0.20;;;;;;;;;;6258269;28;20492;-87
2023/12/21 00:16:06;;;;;;;0.20;0.20;;;;;;;;;;6242925;28;20087;-87
2023/12/21 00:19:06;;;;;;;0.20;0.20;;;;;;;;;;6241620;28;20029;-87
2023/12/21 00:22:06;;;;;;;0.20;0.20;;;;;;;;;;6258511;28;20021;-86
2023/12/21 00:25:07;;;;;;;0.20;0.20;;;;;;;;;;6243635;28;20076;-87
2023/12/21 00:28:07;;;;;;;0.20;0.20;;;;;;;;;;6237037;28;20515;-86
2023/12/21 00:31:07;;;;;;;0.20;0.20;;;;;;;;;;6243240;28;20021;-87
2023/12/21 00:34:07;;;;;;;0.20;0.20;;;;;;;;;;6241512;28;20628;-87
2023/12/21 00:37:08;;;;;;;0.20;0.20;;;;;;;;;;6233269;28;20493;-86
2023/12/21 00:40:09;;;;;;;0.20;0.20;;;;;;;;;;6241685;28;20033;-87
2023/12/21 00:43:09;;;;;;;0.20;0.20;;;;;;;;;;6242469;28;20052;-87
2023/12/21 00:46:09;;;;;;;0.20;0.20;;;;;;;;;;6253025;28;20165;-87
2023/12/21 00:49:09;;;;;;;0.20;0.20;;;;;;;;;;6245498;28;20021;-87
2023/12/21 00:52:10;;;;;;;0.20;0.20;;;;;;;;;;6253597;28;20021;-87
2023/12/21 00:55:10;;;;;;;0.20;0.20;;;;;;;;;;6248532;28;20029;-87
2023/12/21 00:58:10;;;;;;;0.20;0.20;;;;;;;;;;6255499;28;20021;-87
2023/12/21 01:01:11;;;;;;;0.20;0.20;;;;;;;;;;6250342;28;20024;-87
2023/12/21 01:04:11;;;;;;;0.20;0.20;;;;;;;;;;6232311;28;20028;-87
2023/12/21 01:07:11;;;;;;;0.20;0.20;;;;;;;;;;6244147;28;20084;-87
2023/12/21 01:10:11;;;;;;;0.20;0.20;;;;;;;;;;6241991;28;20046;-87
2023/12/21 01:13:12;;;;;;;0.20;0.20;;;;;;;;;;6246633;28;20557;-87
2023/12/21 01:16:14;;;;;;;0.20;0.20;;;;;;;;;;6252258;28;20028;-86
2023/12/21 01:19:15;;;;;;;0.20;0.20;;;;;;;;;;6250257;28;20017;-86
2023/12/21 01:22:15;;;;;;;0.20;0.20;;;;;;;;;;6252773;28;20120;-86
2023/12/21 01:25:15;;;;;;;0.20;0.20;;;;;;;;;;6249517;28;20021;-86
2023/12/21 01:28:15;;;;;;;0.20;0.20;;;;;;;;;;6257551;28;20493;-86
2023/12/21 01:31:15;;;;;;;0.20;0.20;;;;;;;;;;6271896;28;20041;-86
2023/12/21 01:34:16;;;;;;;0.20;0.20;;;;;;;;;;6248428;28;20025;-86
2023/12/21 01:37:16;;;;;;;0.20;0.20;;;;;;;;;;6262045;28;20029;-87
2023/12/21 01:40:17;;;;;;;0.20;0.20;;;;;;;;;;6241761;28;20237;-87
2023/12/21 01:43:17;;;;;;;0.20;0.20;;;;;;;;;;6249934;28;20432;-87
2023/12/21 01:46:17;;;;;;;0.20;0.20;;;;;;;;;;6248661;28;20030;-87
2023/12/21 01:49:19;;;;;;;0.20;0.20;;;;;;;;;;6250714;28;20029;-87
2023/12/21 01:52:19;;;;;;;;;;;;;;;;;;6249591;28;20030;-87
2023/12/21 01:55:19;;;;;;;0.20;0.20;;;;;;;;;;6257411;28;19928;-87
2023/12/21 01:58:22;;;;;;;0.20;0.20;;;;;;;;;;6248360;28;20268;-87
2023/12/21 02:01:23;;;;;;;0.20;0.20;;;;;;;;;;6248308;28;20265;-86
2023/12/21 02:07:26;;;;;;;0.20;0.20;;;;;;;;;;6290053;28;20109;-78
2023/12/21 02:10:26;;;;;;;0.20;0.20;;;;;;;;;;6294151;28;20024;-78
2023/12/21 02:13:26;;;;;;;0.20;0.20;;;;;;;;;;6296166;28;20048;-87
2023/12/21 02:16:31;;;;;;;0.20;0.20;;;;;;;;;;6300448;28;20021;-78
2023/12/21 02:19:31;;;;;;;0.20;0.20;;;;;;;;;;6297988;28;20013;-78
2023/12/21 02:22:33;;;;;;;0.20;0.20;;;;;;;;;;6295715;28;20025;-78
2023/12/21 02:25:33;;;;;;;;;;;;;;;;;;6295590;28;20025;-79
2023/12/21 02:28:33;;;;;;;0.20;0.20;;;;;;;;;;6296193;28;19908;-77
2023/12/21 02:31:34;;;;;;;0.20;0.20;;;;;;;;;;6277549;28;20494;-78
2023/12/21 02:34:34;;;;;;;0.20;0.20;;;;;;;;;;6277556;28;20115;-78
2023/12/21 02:37:34;;;;;;;0.20;0.20;;;;;;;;;;6295469;28;20023;-78
2023/12/21 02:40:34;;;;;;;0.20;0.20;;;;;;;;;;6293283;28;20029;-78
2023/12/21 02:43:34;;;;;;;0.20;0.20;;;;;;;;;;6295711;28;20032;-78
2023/12/21 02:46:35;;;;;;;0.20;0.20;;;;;;;;;;6295487;28;20170;-79
2023/12/21 02:49:35;;;;;;;0.20;0.20;;;;;;;;;;6277814;28;20043;-77
2023/12/21 02:52:35;;;;;;;0.20;0.20;;;;;;;;;;6293271;28;20020;-78
2023/12/21 02:55:35;;;;;;;0.20;0.20;;;;;;;;;;6286703;28;20066;-77
2023/12/21 02:58:36;;;;;;;0.20;0.20;;;;;;;;;;6294785;28;20013;-79
2023/12/21 03:01:40;;;;;;;0.20;0.20;;;;;;;;;;6277332;28;20399;-78
2023/12/21 03:04:40;;;;;;;0.20;0.20;;;;;;;;;;6280777;28;20024;-78
2023/12/21 03:07:40;;;;;;;0.20;0.20;;;;;;;;;;6287712;28;20159;-78
2023/12/21 03:10:41;;;;;;;0.20;0.20;;;;;;;;;;6276434;28;20025;-78
2023/12/21 03:13:41;;;;;;;0.10;0.10;;;;;;;;;;6259648;28;20036;-76
2023/12/21 03:16:41;;;;;;;0.20;0.20;;;;;;;;;;6262453;28;20025;-78
2023/12/21 03:19:41;;;;;;;0.13;0.13;;;;;;;;;;6280148;28;20032;-79
2023/12/21 03:22:41;;;;;;;0.20;0.20;;;;;;;;;;6266007;28;20104;-86
2023/12/21 03:25:42;;;;;;;0.20;0.20;;;;;;;;;;6292514;28;20016;-86
2023/12/21 03:28:44;;;;;;;0.20;0.20;;;;;;;;;;6281176;28;20012;-86
2023/12/21 03:31:44;;;;;;;0.20;0.20;;;;;;;;;;6269296;28;20050;-85
2023/12/21 03:34:45;;;;;;;0.20;0.20;;;;;;;;;;6275957;28;20021;-78
2023/12/21 03:37:45;;;;;;;0.20;0.20;;;;;;;;;;6284806;28;20386;-78
2023/12/21 03:40:45;;;;;;;0.20;0.20;;;;;;;;;;6288600;28;20054;-78
2023/12/21 03:43:46;;;;;;;0.20;0.20;;;;;;;;;;6293421;28;20024;-78
2023/12/21 03:46:46;;;;;;;0.20;0.20;;;;;;;;;;6294193;28;20099;-78
2023/12/21 03:49:46;;;;;;;0.20;0.20;;;;;;;;;;6293705;28;20039;-78
2023/12/21 03:52:46;;;;;;;0.20;0.20;;;;;;;;;;6293878;28;20020;-78
2023/12/21 03:55:46;;;;;;;0.20;0.20;;;;;;;;;;6279507;28;20495;-79
2023/12/21 03:58:47;;;;;;;0.20;0.20;;;;;;;;;;6280040;28;20028;-78
2023/12/21 04:01:47;;;;;;;0.20;0.20;;;;;;;;;;6292846;28;20032;-78
2023/12/21 04:04:47;;;;;;;0.20;0.20;;;;;;;;;;6292951;28;20048;-79
2023/12/21 04:07:47;;;;;;;0.20;0.20;;;;;;;;;;6292898;28;20028;-78
2023/12/21 04:10:48;;;;;;;0.20;0.20;;;;;;;;;;6275389;28;20020;-78
2023/12/21 04:13:48;;;;;;;0.20;0.20;;;;;;;;;;6293379;28;20016;-78
2023/12/21 04:16:49;;;;;;;0.20;0.20;;;;;;;;;;6274961;28;20569;-78
2023/12/21 04:19:49;;;;;;;0.20;0.20;;;;;;;;;;6289470;28;20031;-78
2023/12/21 04:22:49;;;;;;;0.20;0.20;;;;;;;;;;6283374;28;20489;-78
2023/12/21 04:25:49;;;;;;;0.20;0.20;;;;;;;;;;6293908;28;20027;-79
2023/12/21 04:28:50;;;;;;;0.20;0.20;;;;;;;;;;6279298;28;20196;-78
2023/12/21 04:31:50;;;;;;;0.20;0.20;;;;;;;;;;6292819;28;20021;-78
2023/12/21 04:34:50;;;;;;;0.20;0.20;;;;;;;;;;6293660;28;20020;-78
2023/12/21 04:37:51;;;;;;;0.20;0.20;;;;;;;;;;6292450;28;20013;-78
2023/12/21 04:40:51;;;;;;;0.20;0.20;;;;;;;;;;6290610;28;20548;-78
2023/12/21 04:43:51;;;;;;;0.20;0.20;;;;;;;;;;6274513;28;20020;-78
2023/12/21 04:46:51;;;;;;;0.20;0.20;;;;;;;;;;6292677;28;20020;-78
2023/12/21 04:49:52;;;;;;;0.20;0.20;;;;;;;;;;6292275;28;20062;-78
2023/12/21 04:52:53;;;;;;;0.20;0.20;;;;;;;;;;6274481;28;20019;-78
2023/12/21 04:55:53;;;;;;;0.20;0.20;;;;;;;;;;6292625;28;20086;-77
2023/12/21 04:58:54;;;;;;;0.20;0.20;;;;;;;;;;6273597;28;20029;-78
2023/12/21 05:01:56;;;;;;;0.20;0.20;;;;;;;;;;6279614;28;20096;-78
2023/12/21 05:04:56;;;;;;;0.20;0.20;;;;;;;;;;6292267;28;20040;-78
2023/12/21 05:07:56;;;;;;;0.20;0.20;;;;;;;;;;6292034;28;20193;-78
2023/12/21 05:10:56;;;;;;;0.20;0.20;;;;;;;;;;6278213;28;20032;-78
2023/12/21 05:13:57;;;;;;;0.20;0.20;;;;;;;;;;6292718;28;20013;-78
2023/12/21 05:16:57;;;;;;;0.20;0.20;;;;;;;;;;6291764;28;20017;-78
2023/12/21 05:19:57;;;;;;;0.20;0.20;;;;;;;;;;6291483;28;20036;-78
2023/12/21 05:22:58;;;;;;;0.20;0.20;;;;;;;;;;6291879;28;20450;-77
2023/12/21 05:25:58;;;;;;;0.20;0.20;;;;;;;;;;6292163;28;20025;-77
2023/12/21 05:28:58;;;;;;;0.20;0.20;;;;;;;;;;6291504;28;20031;-79
2023/12/21 05:31:59;;;;;;;0.20;0.20;;;;;;;;;;6290863;28;20108;-77
2023/12/21 05:34:59;;;;;;;0.20;0.20;;;;;;;;;;6273791;28;20021;-76
2023/12/21 05:37:59;;;;;;;0.20;0.20;;;;;;;;;;6291750;28;20483;-78
2023/12/21 05:40:59;;;;;;;0.20;0.20;;;;;;;;;;6273203;28;20032;-78
2023/12/21 05:43:59;;;;;;;0.20;0.20;;;;;;;;;;6285120;28;20054;-85
2023/12/21 05:47:00;;;;;;;0.20;0.20;;;;;;;;;;6284678;28;20506;-86
2023/12/21 05:50:00;;;;;;;0.20;0.20;;;;;;;;;;6266289;28;20132;-87
2023/12/21 05:53:00;;;;;;;0.20;0.20;;;;;;;;;;6275179;28;20033;-86
2023/12/21 05:56:01;;;;;;;0.20;0.20;;;;;;;;;;6285322;28;20032;-86
2023/12/21 05:59:01;;;;;;;0.20;0.20;;;;;;;;;;6276071;28;20508;-86
2023/12/21 06:02:02;;;;;;;0.20;0.20;;;;;;;;;;6278103;28;20120;-87
2023/12/21 06:05:02;;;;;;;0.20;0.20;;;;;;;;;;6292916;28;20051;-85
2023/12/21 06:08:02;;;;;;;0.20;0.20;;;;;;;;;;6257903;28;20071;-85
2023/12/21 06:11:03;;;;;;;0.13;0.13;;;;;;;;;;6268165;28;20066;-86
2023/12/21 06:14:03;;;;;;;0.20;0.20;;;;;;;;;;6291675;28;20438;-86
2023/12/21 06:17:03;;;;;;;0.20;0.20;;;;;;;;;;6288825;28;20052;-86
2023/12/21 06:20:04;;;;;;;0.20;0.20;;;;;;;;;;6297557;28;20029;-85
2023/12/21 06:23:04;;;;;;;0.20;0.20;;;;;;;;;;6271235;28;20040;-85
2023/12/21 06:26:04;;;;;;;0.10;0.10;;;;;;;;;;6272589;28;20024;-86
2023/12/21 06:29:04;;;;;;;0.20;0.20;;;;;;;;;;6271567;28;20306;-87
2023/12/21 06:32:05;;;;;;;0.20;0.20;;;;;;;;;;6273707;28;20027;-86
2023/12/21 06:35:05;;;;;;;0.20;0.20;;;;;;;;;;6293401;28;20023;-86
2023/12/21 06:38:06;;;;;;;0.20;0.20;;;;;;;;;;6277101;28;20482;-86
2023/12/21 06:41:07;;;;;;;0.20;0.20;;;;;;;;;;6267678;28;20063;-86
2023/12/21 06:44:10;;;;;;;0.20;0.20;;;;;;;;;;6291917;28;20043;-87
2023/12/21 06:47:10;;;;;;;0.20;0.20;;;;;;;;;;6285265;28;20593;-87
2023/12/21 06:50:11;;;;;;;0.20;0.20;;;;;;;;;;6295406;28;20025;-86
2023/12/21 06:53:15;;;;;;;0.20;0.20;;;;;;;;;;6296199;28;20484;-83
2023/12/21 06:56:17;;;;;;;0.20;0.20;;;;;;;;;;6294629;28;20044;-86
2023/12/21 06:59:17;;;;;;;0.20;0.20;;;;;;;;;;6269318;28;20025;-87
2023/12/21 07:02:17;;;;;;;0.20;0.20;;;;;;;;;;6271191;28;20036;-86
2023/12/21 07:05:17;;;;;;;0.20;0.20;;;;;;;;;;6277911;28;20106;-86
2023/12/21 07:08:18;;;;;;;0.20;0.20;;;;;;;;;;6286523;28;20418;-83
2023/12/21 07:11:18;;;;;;;0.20;0.20;;;;;;;;;;6265234;28;20029;-84
2023/12/21 07:14:18;;;;;;;0.20;0.20;;;;;;;;;;6274531;28;20099;-83
2023/12/21 07:17:19;;;;;;;0.20;0.20;;;;;;;;;;6287745;28;20025;-84
2023/12/21 07:20:24;;;;;;;0.20;0.20;;;;;;;;;;6290916;28;20032;-84
2023/12/21 07:23:24;;;;;;;0.20;0.20;;;;;;;;;;6288771;28;20024;-84
2023/12/21 07:26:26;;;;;;;0.20;0.20;;;;;;;;;;6285163;28;20079;-82
2023/12/21 07:29:26;;;;;;;0.20;0.20;;;;;;;;;;6275884;28;20031;-87
2023/12/21 07:32:27;;;;;;;0.20;0.20;;;;;;;;;;6272934;28;20020;-83
2023/12/21 07:35:27;;;;;;;0.20;0.20;;;;;;;;;;6269293;28;20020;-85
2023/12/21 07:38:27;;;;;;;0.20;0.20;;;;;;;;;;6288499;28;20040;-84
2023/12/21 07:41:27;;;;;;;0.20;0.20;;;;;;;;;;6293485;28;20020;-85
2023/12/21 07:44:27;;;;;;;0.20;0.20;;;;;;;;;;6275398;28;20016;-86
2023/12/21 07:47:27;;;;;;;0.20;0.20;;;;;;;;;;6290017;28;20540;-85
2023/12/21 07:50:29;;;;;;;0.20;0.20;;;;;;;;;;6293139;28;20462;-85
2023/12/21 07:53:29;;;;;;;0.20;0.20;;;;;;;;;;6293389;28;20066;-86
2023/12/21 07:56:30;;;;;;;0.20;0.20;;;;;;;;;;6289026;28;20048;-88
2023/12/21 07:59:30;;;;;;;0.20;0.20;;;;;;;;;;6271300;28;20019;-87
2023/12/21 08:02:30;;;;;;;0.20;0.20;;;;;;;;;;6283664;28;20032;-78
2023/12/21 08:05:30;;;;;;;0.20;0.20;;;;;;;;;;6283162;28;20630;-79
2023/12/21 08:08:30;;;;;;;0.20;0.20;;;;;;;;;;6298971;28;20024;-78
2023/12/21 08:11:30;;;;;;;0.20;0.20;;;;;;;;;;6281806;28;20131;-79
2023/12/21 08:14:35;;;;;;;0.20;0.20;;;;;;;;;;6272523;28;20017;-78
2023/12/21 08:17:35;;;;;;;0.20;0.20;;;;;;;;;;6274621;28;20032;-80
2023/12/21 08:20:36;;;;;;;0.20;0.20;;;;;;;;;;6287478;28;20554;-78
2023/12/21 08:23:36;;;;;;;0.20;0.20;;;;;;;;;;6271820;28;20025;-88
2023/12/21 08:26:40;;;;;;;0.20;0.20;;;;;;;;;;6291980;28;20017;-85
2023/12/21 08:29:40;;;;;;;0.20;0.20;;;;;;;;;;6292419;28;20117;-87
2023/12/21 08:32:40;;;;;;;0.20;0.20;;;;;;;;;;6293089;28;20020;-80
2023/12/21 08:35:40;;;;;;;0.20;0.20;;;;;;;;;;6285832;28;20020;-79
2023/12/21 08:38:41;;;;;;;0.20;0.20;;;;;;;;;;6291957;28;20086;-79
2023/12/21 08:41:41;;;;;;;0.20;0.20;;;;;;;;;;6291582;28;20283;-79
2023/12/21 08:44:42;;;;;;;0.20;0.20;;;;;;;;;;6276705;28;20082;-79
2023/12/21 08:47:42;;;;;;;0.20;0.20;;;;;;;;;;6299966;28;20024;-78
2023/12/21 08:50:42;;;;;;;0.20;0.20;;;;;;;;;;6271610;28;20035;-79
2023/12/21 08:53:44;;;;;;;0.20;0.20;;;;;;;;;;6292710;28;20470;-79
2023/12/21 08:56:44;;;;;;;0.20;0.20;;;;;;;;;;6285134;28;20152;-78
2023/12/21 08:59:44;;;;;;;0.20;0.20;;;;;;;;;;6302481;28;20025;-77
2023/12/21 09:02:45;;;;;;;0.20;0.20;;;;;;;;;;6299548;28;20028;-77
2023/12/21 09:05:45;;;;;;;0.20;0.20;;;;;;;;;;6283136;28;20120;-77
2023/12/21 09:08:45;;;;;;;0.20;0.20;;;;;;;;;;6287123;28;20295;-77
2023/12/21 09:11:46;;;;;;;0.20;0.20;;;;;;;;;;6290117;28;20036;-78
2023/12/21 09:14:46;;;;;;;0.20;0.20;;;;;;;;;;6291013;28;20036;-76
2023/12/21 09:17:46;;;;;;;0.20;0.20;;;;;;;;;;6290159;28;20034;-77
2023/12/21 09:20:47;;;;;;;0.17;0.17;;;;;;;;;;6273438;28;20036;-77
2023/12/21 09:23:47;;;;;;;0.20;0.20;;;;;;;;;;6290372;28;20035;-77
2023/12/21 09:26:48;;;;;;;0.20;0.20;;;;;;;;;;6273520;28;20055;-78
2023/12/21 09:29:48;;;;;;;0.10;0.10;;;;;;;;;;6273108;28;20021;-77
2023/12/21 09:32:48;;;;;;;0.20;0.20;;;;;;;;;;6274313;28;20119;-77
2023/12/21 09:35:54;;;;;;;0.13;0.13;;;;;;;;;;6291584;28;20025;-76
2023/12/21 09:38:54;;;;;;;0.20;0.20;;;;;;;;;;6286865;28;20463;-77
2023/12/21 09:41:55;;;;;;;0.20;0.20;;;;;;;;;;6275895;28;20036;-86
2023/12/21 09:44:55;;;;;;;0.20;0.20;;;;;;;;;;6296598;28;20025;-85
2023/12/21 09:47:55;;;;;;;0.20;0.20;;;;;;;;;;6287383;28;20144;-86
2023/12/21 09:50:57;;;;;;;0.20;0.20;;;;;;;;;;6272700;28;20446;-85
2023/12/21 09:53:59;;;;;;;0.20;0.20;;;;;;;;;;6281514;28;20032;-85
2023/12/21 09:57:00;;;;;;;0.20;0.20;;;;;;;;;;6270833;28;20029;-85
2023/12/21 10:00:01;;;;;;;0.20;0.20;;;;;;;;;;6293504;28;20099;-85
2023/12/21 10:03:01;;;;;;;0.20;0.20;;;;;;;;;;6293601;28;20024;-86
2023/12/21 10:06:05;;;;;;;0.20;0.20;;;;;;;;;;6297241;28;20051;-85
2023/12/21 10:09:05;;;;;;;0.20;0.20;;;;;;;;;;6295974;28;20054;-85
2023/12/21 10:12:07;;;;;;;0.20;0.20;;;;;;;;;;6277236;28;20054;-86
2023/12/21 10:15:09;;;;;;;0.10;0.10;;;;;;;;;;6295551;28;20475;-88
2023/12/21 10:18:09;;;;;;;0.20;0.20;;;;;;;;;;6273225;28;20390;-86
2023/12/21 10:21:10;;;;;;;0.20;0.20;;;;;;;;;;6292851;28;20032;-87
2023/12/21 10:24:10;;;;;;;0.10;0.10;;;;;;;;;;6295800;28;20036;-85
2023/12/21 10:27:13;;;;;;;0.20;0.20;;;;;;;;;;6288750;28;20131;-86
2023/12/21 10:30:15;;;;;;;0.20;0.20;;;;;;;;;;6275539;28;20082;-84
2023/12/21 10:33:16;;;;;;;0.20;0.20;;;;;;;;;;6285102;28;20066;-85
2023/12/21 10:36:16;;;;;;;0.20;0.20;;;;;;;;;;6293626;28;20016;-85
2023/12/21 10:39:16;;;;;;;0.20;0.20;;;;;;;;;;6288422;28;20048;-85
2023/12/21 10:42:17;;;;;;;0.20;0.20;;;;;;;;;;6278132;28;20027;-84
2023/12/21 10:45:18;;;;;;;0.20;0.20;;;;;;;;;;6282998;28;20032;-86
2023/12/21 10:48:21;;;;;;;0.20;0.20;;;;;;;;;;6275226;28;20024;-86
2023/12/21 10:51:22;;;;;;;0.20;0.20;;;;;;;;;;6291430;28;20016;-85
2023/12/21 10:54:23;;;;;;;0.10;0.10;;;;;;;;;;6290797;28;20028;-85
2023/12/21 10:57:23;;;;;;;0.10;0.10;;;;;;;;;;6264194;28;20024;-86
2023/12/21 11:00:24;;;;;;;0.10;0.10;;;;;;;;;;6269788;28;20449;-85
2023/12/21 11:03:25;;;;;;;0.10;0.10;;;;;;;;;;6287475;28;20017;-84
2023/12/21 11:06:26;;;;;;;0.20;0.20;;;;;;;;;;6294095;28;20057;-86
2023/12/21 11:09:31;;;;;;;0.20;0.20;;;;;;;;;;6275117;28;20050;-85
2023/12/21 11:12:31;;;;;;;0.20;0.20;;;;;;;;;;6277257;28;20510;-86
2023/12/21 11:15:32;;;;;;;0.20;0.20;;;;;;;;;;6269736;28;20006;-85
2023/12/21 11:18:33;;;;;;;0.20;0.20;;;;;;;;;;6274012;28;20534;-85
2023/12/21 11:21:34;;;;;;;0.20;0.20;;;;;;;;;;6293804;28;20074;-87
2023/12/21 11:24:34;;;;;;;0.20;0.20;;;;;;;;;;6274071;28;20020;-85
2023/12/21 11:27:38;;;;;;;0.13;0.13;;;;;;;;;;6286343;28;20544;-86
2023/12/21 11:30:38;;;;;;;0.20;0.20;;;;;;;;;;6285815;28;20544;-86
2023/12/21 11:33:38;;;;;;;0.20;0.20;;;;;;;;;;6278417;28;20020;-78
2023/12/21 11:36:39;;;;;;;0.20;0.20;;;;;;;;;;6284156;28;20025;-78
2023/12/21 11:39:40;;;;;;;0.20;0.20;;;;;;;;;;6285261;28;20063;-79
2023/12/21 11:42:44;;;;;;;0.20;0.20;;;;;;;;;;6271417;28;20016;-78
2023/12/21 11:45:47;;;;;;;0.20;0.20;;;;;;;;;;6268535;28;20069;-78
2023/12/21 11:48:47;;;;;;;0.20;0.20;;;;;;;;;;6284528;28;20032;-80
2023/12/21 11:51:49;;;;;;;0.20;0.20;;;;;;;;;;6291346;28;20111;-79
2023/12/21 11:54:49;;;;;;;0.20;0.20;;;;;;;;;;6285695;28;20421;-81
2023/12/21 11:57:50;;;;;;;0.20;0.20;;;;;;;;;;6279557;28;20134;-80
2023/12/21 12:00:50;;;;;;;0.20;0.20;;;;;;;;;;6291421;28;20408;-80
2023/12/21 12:03:51;;;;;;;0.20;0.20;;;;;;;;;;6273909;28;20077;-80
2023/12/21 12:06:51;;;;;;;0.20;0.20;;;;;;;;;;6292103;28;20045;-79
2023/12/21 12:09:51;;;;;;;0.20;0.20;;;;;;;;;;6287780;28;20108;-78
2023/12/21 12:12:52;;;;;;;0.20;0.20;;;;;;;;;;6293234;28;20386;-88
2023/12/21 12:15:52;;;;;;;0.20;0.20;;;;;;;;;;6273447;28;20020;-88
2023/12/21 12:18:54;;;;;;;0.20;0.20;;;;;;;;;;6270677;28;20055;-86
2023/12/21 12:21:54;;;;;;;0.20;0.20;;;;;;;;;;6285178;28;20032;-87
2023/12/21 12:24:54;;;;;;;0.20;0.20;;;;;;;;;;6286707;28;20017;-85
2023/12/21 12:27:54;;;;;;;0.20;0.20;;;;;;;;;;6277038;28;20016;-86
2023/12/21 12:30:55;;;;;;;0.20;0.20;;;;;;;;;;6286736;28;20517;-87
2023/12/21 12:33:55;;;;;;;0.20;0.20;;;;;;;;;;6274129;28;20013;-85
2023/12/21 12:36:56;;;;;;;0.20;0.20;;;;;;;;;;6262738;28;20064;-85
2023/12/21 12:39:56;;;;;;;0.20;0.20;;;;;;;;;;6285055;28;20020;-87
2023/12/21 12:42:56;;;;;;;0.20;0.20;;;;;;;;;;6285293;28;20021;-87
2023/12/21 12:45:56;;;;;;;0.20;0.20;;;;;;;;;;6271583;28;20012;-87
2023/12/21 12:48:57;;;;;;;0.20;0.20;;;;;;;;;;6271453;28;20664;-87
2023/12/21 12:51:58;;;;;;;0.20;0.20;;;;;;;;;;6288542;28;20398;-87
2023/12/21 12:55:00;;;;;;;0.20;0.20;;;;;;;;;;6288467;28;20487;-86
2023/12/21 12:58:02;;;;;;;0.20;0.20;;;;;;;;;;6283899;28;20024;-86
2023/12/21 13:01:03;;;;;;;0.20;0.20;;;;;;;;;;6277269;28;20078;-87
2023/12/21 13:04:03;;;;;;;0.20;0.20;;;;;;;;;;6291802;28;20033;-86
2023/12/21 13:07:03;;;;;;;0.20;0.20;;;;;;;;;;6292085;28;20055;-85
2023/12/21 13:10:04;;;;;;;0.20;0.20;;;;;;;;;;6287895;28;20025;-86
2023/12/21 13:13:04;;;;;;;0.20;0.20;;;;;;;;;;6289208;28;20039;-87
2023/12/21 13:16:05;;;;;;;0.20;0.20;;;;;;;;;;6267546;28;20066;-84
2023/12/21 13:19:06;;;;;;;0.20;0.20;;;;;;;;;;6282499;28;20021;-85
2023/12/21 13:22:06;;;;;;;0.20;0.20;;;;;;;;;;6285776;28;20024;-76
2023/12/21 13:25:08;;;;;;;0.20;0.20;;;;;;;;;;6285363;28;20048;-77
2023/12/21 13:28:08;;;;;;;0.20;0.20;;;;;;;;;;6281546;28;20108;-75
2023/12/21 13:31:08;;;;;;;0.20;0.20;;;;;;;;;;6282421;28;20040;-77
2023/12/21 13:34:08;;;;;;;0.20;0.20;;;;;;;;;;6281595;28;20021;-78
2023/12/21 13:37:09;;;;;;;0.20;0.20;;;;;;;;;;6286089;28;20023;-78
2023/12/21 13:40:09;;;;;;;0.20;0.20;;;;;;;;;;6285510;28;20024;-77
2023/12/21 13:43:10;;;;;;;0.20;0.20;;;;;;;;;;6288147;28;20045;-77
2023/12/21 13:46:11;;;;;;;0.20;0.20;;;;;;;;;;6290589;28;20048;-78
2023/12/21 13:49:11;;;;;;;0.20;0.20;;;;;;;;;;6289371;28;20009;-78
2023/12/21 13:52:11;;;;;;;0.20;0.20;;;;;;;;;;6273060;28;20486;-87
2023/12/21 13:55:12;;;;;;;0.20;0.20;;;;;;;;;;6288471;28;20547;-85
2023/12/21 13:58:12;;;;;;;0.20;0.20;;;;;;;;;;6287782;28;20029;-82
2023/12/21 14:01:12;;;;;;;0.20;0.20;;;;;;;;;;6262914;28;20021;-84
2023/12/21 14:04:12;;;;;;;0.20;0.20;;;;;;;;;;6281526;28;20021;-85
2023/12/21 14:07:13;;;;;;;0.20;0.20;;;;;;;;;;6282814;28;20501;-81
2023/12/21 14:10:13;;;;;;;0.20;0.20;;;;;;;;;;6268403;28;20025;-83
2023/12/21 14:13:13;;;;;;;0.20;0.20;;;;;;;;;;6280648;28;20013;-79
2023/12/21 14:16:13;;;;;;;0.20;0.20;;;;;;;;;;6282715;28;20653;-79
2023/12/21 14:19:13;;;;;;;0.20;0.20;;;;;;;;;;6282672;28;20021;-78
2023/12/21 14:22:14;;;;;;;0.20;0.20;;;;;;;;;;6273499;28;20028;-79
2023/12/21 14:25:14;;;;;;;0.20;0.20;;;;;;;;;;6282123;28;20617;-79
2023/12/21 14:28:17;;;;;;;0.20;0.20;;;;;;;;;;6287066;28;20016;-78
2023/12/21 14:31:17;;;;;;;0.20;0.20;;;;;;;;;;6262513;28;20040;-80
2023/12/21 14:34:19;;;;;;;0.20;0.20;;;;;;;;;;6287458;28;20012;-79
2023/12/21 14:37:19;;;;;;;0.20;0.20;;;;;;;;;;6291901;28;20531;-79
2023/12/21 14:40:19;;;;;;;0.20;0.20;;;;;;;;;;6284614;28;20009;-79
2023/12/21 14:43:19;;;;;;;0.20;0.20;;;;;;;;;;6266814;28;20486;-78
2023/12/21 14:46:20;;;;;;;0.20;0.20;;;;;;;;;;6267804;28;20012;-77
2023/12/21 14:49:20;;;;;;;0.20;0.20;;;;;;;;;;6290314;28;20009;-78
2023/12/21 14:52:20;;;;;;;0.20;0.20;;;;;;;;;;6291369;28;20016;-78
2023/12/21 14:55:20;;;;;;;0.20;0.20;;;;;;;;;;6271027;28;20004;-79
2023/12/21 14:58:20;;;;;;;0.10;0.10;;;;;;;;;;6289113;28;20580;-77
2023/12/21 15:01:20;;;;;;;0.20;0.20;;;;;;;;;;6279192;28;20029;-78
2023/12/21 15:04:21;;;;;;;0.10;0.10;;;;;;;;;;6287449;28;20020;-79
2023/12/21 15:07:21;;;;;;;0.20;0.20;;;;;;;;;;6282618;28;20049;-79
2023/12/21 15:10:21;;;;;;;0.10;0.10;;;;;;;;;;6293907;28;20033;-79
2023/12/21 15:13:24;;;;;;;0.20;0.20;;;;;;;;;;6297059;28;20480;-79
2023/12/21 15:16:27;;;;;;;0.20;0.20;;;;;;;;;;6298397;28;20086;-78
2023/12/21 15:19:31;;;;;;;0.20;0.20;;;;;;;;;;6292318;28;20104;-80
2023/12/21 15:22:31;;;;;;;0.20;0.20;;;;;;;;;;6292422;28;20553;-85
2023/12/21 15:25:31;;;;;;;0.20;0.20;;;;;;;;;;6293149;28;20031;-85
2023/12/21 15:28:31;;;;;;;0.20;0.20;;;;;;;;;;6291900;28;20024;-85
2023/12/21 15:31:31;;;;;;;0.20;0.20;;;;;;;;;;6274027;28;20391;-85
2023/12/21 15:34:34;;;;;;;0.20;0.20;;;;;;;;;;6284989;28;20502;-82
2023/12/21 15:37:34;;;;;;;0.10;0.10;;;;;;;;;;6287117;28;20017;-83
2023/12/21 15:40:34;;;;;;;0.20;0.20;;;;;;;;;;6268577;28;20021;-84
2023/12/21 15:43:35;;;;;;;0.20;0.20;;;;;;;;;;6286114;28;20020;-83
2023/12/21 15:46:35;;;;;;;0.20;0.20;;;;;;;;;;6286053;28;20051;-84
2023/12/21 15:49:35;;;;;;;0.20;0.20;;;;;;;;;;6284122;28;20063;-84
2023/12/21 15:52:35;;;;;;;0.20;0.20;;;;;;;;;;6270868;28;20423;-81
2023/12/21 15:55:35;;;;;;;0.20;0.20;;;;;;;;;;6274035;28;20020;-86
2023/12/21 15:58:36;;;;;;;0.20;0.20;;;;;;;;;;6287490;28;20515;-83
2023/12/21 16:01:36;;;;;;;0.20;0.20;;;;;;;;;;6304430;28;20036;-83
2023/12/21 16:04:36;;;;;;;0.20;0.20;;;;;;;;;;6300230;28;20036;-86
2023/12/21 16:07:36;;;;;;;0.15;0.15;;;;;;;;;;6295247;28;20119;-85
2023/12/21 16:10:36;;;;;;;0.10;0.10;;;;;;;;;;6303866;28;20032;-84
2023/12/21 16:13:37;;;;;;;0.20;0.20;;;;;;;;;;6279744;28;20011;-84
2023/12/21 16:16:37;;;;;;;0.20;0.20;;;;;;;;;;6287175;28;20020;-84
2023/12/21 16:19:39;;;;;;;0.20;0.20;;;;;;;;;;6284052;28;20019;-83
2023/12/21 16:22:39;;;;;;;0.20;0.20;;;;;;;;;;6285163;28;20482;-85
2023/12/21 16:25:40;;;;;;;0.20;0.20;;;;;;;;;;6298870;28;20028;-84
2023/12/21 16:28:42;;;;;;;0.10;0.10;;;;;;;;;;6273948;28;20031;-83
2023/12/21 16:31:42;;;;;;;0.20;0.20;;;;;;;;;;6281941;28;20028;-83
2023/12/21 16:34:43;;;;;;;0.20;0.20;;;;;;;;;;6292742;28;20426;-84
2023/12/21 16:37:43;;;;;;;0.20;0.20;;;;;;;;;;6300685;28;20016;-84
2023/12/21 16:40:43;;;;;;;0.13;0.13;;;;;;;;;;6296376;28;20028;-84
2023/12/21 16:43:44;;;;;;;0.10;0.10;;;;;;;;;;6301446;28;20486;-83
2023/12/21 16:46:45;;;;;;;0.13;0.13;;;;;;;;;;6282919;28;20504;-81
2023/12/21 16:49:45;;;;;;;0.20;0.20;;;;;;;;;;6301266;28;20051;-83
2023/12/21 16:52:45;;;;;;;0.20;0.20;;;;;;;;;;6299223;28;20519;-79
2023/12/21 16:55:45;;;;;;;0.20;0.20;;;;;;;;;;6277903;28;20024;-79
2023/12/21 16:58:46;;;;;;;0.20;0.20;;;;;;;;;;6296476;28;20517;-79
2023/12/21 17:01:46;;;;;;;0.20;0.20;;;;;;;;;;6303767;28;20112;-78
2023/12/21 17:04:46;;;;;;;0.10;0.10;;;;;;;;;;6299669;28;20048;-79
2023/12/21 17:07:46;;;;;;;0.20;0.20;;;;;;;;;;6300079;28;20577;-78
2023/12/21 17:10:46;;;;;;;0.10;0.10;;;;;;;;;;6291177;28;20112;-78
2023/12/21 17:13:47;;;;;;;0.10;0.10;;;;;;;;;;6281166;28;20032;-79
2023/12/21 17:16:47;;;;;;;0.10;0.10;;;;;;;;;;6264022;28;20120;-79
2023/12/21 17:19:47;;;;;;;0.20;0.20;;;;;;;;;;6276125;28;20016;-78
2023/12/21 17:22:47;;;;;;;0.10;0.10;;;;;;;;;;6286241;28;20536;-79
2023/12/21 17:25:47;;;;;;;0.10;0.10;;;;;;;;;;6270972;28;20031;-79
2023/12/21 17:28:48;;;;;;;0.20;0.20;;;;;;;;;;6270265;28;20028;-77
2023/12/21 17:31:48;;;;;;;0.20;0.20;;;;;;;;;;6289527;28;20024;-77
2023/12/21 17:34:49;;;;;;;0.20;0.20;;;;;;;;;;6284906;28;20017;-77
2023/12/21 17:37:49;;;;;;;0.10;0.10;;;;;;;;;;6287174;28;20389;-78
2023/12/21 17:40:52;;;;;;;0.10;0.10;;;;;;;;;;6269749;28;20025;-78
2023/12/21 17:43:52;;;;;;;0.20;0.20;;;;;;;;;;6289246;28;20136;-79
2023/12/21 17:46:53;;;;;;;0.10;0.10;;;;;;;;;;6291342;28;20467;-79
2023/12/21 17:49:53;;;;;;;0.20;0.20;;;;;;;;;;6289859;28;20029;-78
2023/12/21 17:52:53;;;;;;;0.20;0.20;;;;;;;;;;6264800;28;20059;-79
2023/12/21 17:55:54;;;;;;;0.10;0.10;;;;;;;;;;6268069;28;20070;-80
2023/12/21 17:58:54;;;;;;;0.20;0.20;;;;;;;;;;6286221;28;20562;-81
2023/12/21 18:01:54;;;;;;;0.17;0.17;;;;;;;;;;6292333;28;20028;-82
2023/12/21 18:04:56;;;;;;;0.17;0.17;;;;;;;;;;6291139;28;20436;-80